createdAt,value
2023-01-11T00:01:53.813Z,98557.45
2023-01-11T00:04:21.285Z,98559.50
2023-01-11T00:06:47.962Z,98560.18
2023-01-11T00:09:14.650Z,98562.93
2023-01-11T00:11:41.188Z,98564.28
2023-01-11T00:14:07.627Z,98566.14
2023-01-11T00:16:34.176Z,98564.77
2023-01-11T00:19:00.629Z,98566.66
2023-01-11T00:21:27.088Z,98570.95
2023-01-11T00:23:53.564Z,98572.98
2023-01-11T00:26:20.135Z,98571.95
2023-01-11T00:28:49.242Z,98572.15
2023-01-11T00:31:17.050Z,98578.20
2023-01-11T00:33:43.643Z,98581.47
2023-01-11T00:36:10.175Z,98581.44
2023-01-11T00:38:36.837Z,98585.73
2023-01-11T00:41:03.368Z,98581.30
2023-01-11T00:43:29.899Z,98580.58
2023-01-11T00:45:58.699Z,98583.69
2023-01-11T00:48:25.556Z,98588.66
2023-01-11T00:50:55.664Z,98591.98
2023-01-11T00:53:22.410Z,98594.19
2023-01-11T00:55:52.193Z,98591.95
2023-01-11T00:58:18.666Z,98589.20
2023-01-11T01:00:45.198Z,98590.38
2023-01-11T01:03:11.862Z,98590.52
2023-01-11T01:05:39.232Z,98587.39
2023-01-11T01:08:06.503Z,98580.55
2023-01-11T01:10:33.006Z,98578.50
2023-01-11T01:12:59.473Z,98578.99
2023-01-11T01:15:26.395Z,98579.55
2023-01-11T01:17:54.465Z,98577.18
2023-01-11T01:20:22.747Z,98578.40
2023-01-11T01:22:50.134Z,98573.27
2023-01-11T01:25:17.807Z,98568.45
2023-01-11T01:27:44.494Z,98567.09
2023-01-11T01:30:11.816Z,98567.92
2023-01-11T01:32:38.307Z,98565.68
2023-01-11T01:35:05.464Z,98566.06
2023-01-11T01:37:31.999Z,98567.60
2023-01-11T01:39:58.408Z,98567.09
2023-01-11T01:42:24.962Z,98567.94
2023-01-11T01:44:53.386Z,98568.60
2023-01-11T01:47:49.033Z,98572.91
2023-01-11T01:50:41.050Z,98576.55
2023-01-11T01:53:11.881Z,98575.20
2023-01-11T01:55:43.440Z,98571.30
2023-01-11T01:58:16.331Z,98577.67
2023-01-11T02:00:45.743Z,98577.36
2023-01-11T02:03:20.719Z,98580.65
2023-01-11T02:05:48.482Z,98582.55
2023-01-11T02:08:25.085Z,98581.06
2023-01-11T02:10:52.487Z,98581.80
2023-01-11T02:13:20.860Z,98583.73
2023-01-11T02:15:47.825Z,98578.30
2023-01-11T02:18:14.432Z,98577.46
2023-01-11T02:21:09.142Z,98573.52
2023-01-11T02:23:52.461Z,98572.33
2023-01-11T02:26:40.034Z,98569.41
2023-01-11T02:29:52.306Z,98572.35
2023-01-11T02:32:51.094Z,98579.02
2023-01-11T02:35:26.347Z,98580.23
2023-01-11T02:38:24.018Z,98585.94
2023-01-11T02:41:08.904Z,98587.81
2023-01-11T02:44:03.484Z,98585.79
2023-01-11T02:46:53.786Z,98586.48
2023-01-11T02:49:51.241Z,98584.11
2023-01-11T02:52:36.426Z,98587.02
2023-01-11T02:55:04.792Z,98593.53
2023-01-11T02:57:32.769Z,98600.06
2023-01-11T03:00:00.544Z,98599.73
2023-01-11T03:02:27.225Z,98593.39
2023-01-11T03:04:53.700Z,98591.84
2023-01-11T03:07:48.315Z,98598.36
2023-01-11T03:10:23.859Z,98595.81
2023-01-11T03:13:11.942Z,98594.44
2023-01-11T03:15:56.992Z,98598.92
2023-01-11T03:18:26.249Z,98597.03
2023-01-11T03:21:20.470Z,98595.84
2023-01-11T03:23:56.025Z,98591.40
2023-01-11T03:26:29.376Z,98589.31
2023-01-11T03:29:34.564Z,98589.13
2023-01-11T03:32:16.358Z,98591.37
2023-01-11T03:35:10.440Z,98589.34
2023-01-11T03:37:47.937Z,98588.31
2023-01-11T03:40:20.928Z,98588.65
2023-01-11T03:42:53.427Z,98584.04
2023-01-11T03:45:20.043Z,98589.02
2023-01-11T03:47:46.801Z,98585.58
2023-01-11T03:50:14.038Z,98588.16
2023-01-11T03:52:42.648Z,98588.52
2023-01-11T03:55:12.310Z,98588.41
2023-01-11T03:57:49.339Z,98585.80
2023-01-11T04:00:16.480Z,98583.21
2023-01-11T04:02:42.921Z,98587.67
2023-01-11T04:05:10.715Z,98587.88
2023-01-11T04:07:37.328Z,98582.56
2023-01-11T04:10:05.141Z,98589.27
2023-01-11T04:12:31.727Z,98587.55
2023-01-11T04:14:58.167Z,98585.14
2023-01-11T04:17:24.594Z,98589.26
2023-01-11T04:19:51.144Z,98594.23
2023-01-11T04:22:17.711Z,98597.27
2023-01-11T04:24:44.218Z,98599.85
2023-01-11T04:27:10.719Z,98601.04
2023-01-11T04:29:37.153Z,98596.40
2023-01-11T04:32:03.743Z,98599.83
2023-01-11T04:34:30.431Z,98596.36
2023-01-11T04:36:56.919Z,98593.23
2023-01-11T04:39:23.613Z,98598.69
2023-01-11T04:41:50.069Z,98596.27
2023-01-11T04:44:16.539Z,98595.04
2023-01-11T04:46:43.174Z,98594.53
2023-01-11T04:49:09.834Z,98590.26
2023-01-11T04:51:37.976Z,98583.91
2023-01-11T04:54:04.637Z,98591.99
2023-01-11T04:56:31.595Z,98599.05
2023-01-11T04:58:58.364Z,98597.80
2023-01-11T05:01:24.959Z,98594.90
2023-01-11T05:03:51.712Z,98589.77
2023-01-11T05:06:19.180Z,98584.96
2023-01-11T05:08:46.939Z,98576.55
2023-01-11T05:11:13.571Z,98576.76
2023-01-11T05:13:40.140Z,98577.33
2023-01-11T05:16:32.908Z,98585.06
2023-01-11T05:19:00.816Z,98588.34
2023-01-11T05:21:39.082Z,98590.59
2023-01-11T05:24:11.247Z,98590.05
2023-01-11T05:26:40.223Z,98588.67
2023-01-11T05:29:09.753Z,98589.20
2023-01-11T05:31:37.805Z,98595.56
2023-01-11T05:34:05.516Z,98601.22
2023-01-11T05:36:31.913Z,98601.91
2023-01-11T05:38:58.572Z,98601.06
2023-01-11T05:41:26.929Z,98600.39
2023-01-11T05:43:54.809Z,98593.70
2023-01-11T05:46:22.599Z,98591.78
2023-01-11T05:48:49.448Z,98589.88
2023-01-11T05:51:16.254Z,98590.02
2023-01-11T05:53:43.485Z,98592.02
2023-01-11T05:56:10.003Z,98594.41
2023-01-11T05:58:36.524Z,98597.50
2023-01-11T06:01:03.267Z,98595.61
2023-01-11T06:03:29.711Z,98597.95
2023-01-11T06:05:58.944Z,98599.31
2023-01-11T06:08:26.168Z,98599.12
2023-01-11T06:10:54.452Z,98603.20
2023-01-11T06:13:21.284Z,98601.79
2023-01-11T06:15:47.740Z,98598.16
2023-01-11T06:18:14.904Z,98599.19
2023-01-11T06:20:41.647Z,98601.06
2023-01-11T06:23:08.422Z,98598.66
2023-01-11T06:25:36.048Z,98600.40
2023-01-11T06:28:02.502Z,98599.36
2023-01-11T06:30:29.138Z,98598.17
2023-01-11T06:32:55.656Z,98600.60
2023-01-11T06:35:22.207Z,98598.07
2023-01-11T06:37:48.744Z,98589.15
2023-01-11T06:40:15.299Z,98585.77
2023-01-11T06:42:41.751Z,98581.54
2023-01-11T06:45:09.115Z,98586.20
2023-01-11T06:47:35.544Z,98586.19
2023-01-11T06:50:02.029Z,98588.77
2023-01-11T06:52:28.473Z,98589.10
2023-01-11T06:54:54.929Z,98587.20
2023-01-11T06:57:21.400Z,98583.54
2023-01-11T06:59:47.829Z,98584.19
2023-01-11T07:02:14.544Z,98580.05
2023-01-11T07:04:40.974Z,98580.91
2023-01-11T07:07:07.421Z,98577.76
2023-01-11T07:09:33.954Z,98575.33
2023-01-11T07:12:00.498Z,98578.39
2023-01-11T07:14:27.036Z,98582.50
2023-01-11T07:16:53.566Z,98586.67
2023-01-11T07:19:19.972Z,98587.40
2023-01-11T07:21:46.408Z,98587.67
2023-01-11T07:24:14.905Z,98593.90
2023-01-11T07:26:41.287Z,98594.45
2023-01-11T07:29:08.761Z,98596.73
2023-01-11T07:31:35.588Z,98600.40
2023-01-11T07:34:02.943Z,98606.89
2023-01-11T07:36:29.563Z,98607.48
2023-01-11T07:38:56.320Z,98608.56
2023-01-11T07:41:22.841Z,98606.36
2023-01-11T07:43:49.407Z,98606.93
2023-01-11T07:46:16.064Z,98605.45
2023-01-11T07:48:42.594Z,98613.06
2023-01-11T07:51:09.539Z,98607.76
2023-01-11T07:53:37.602Z,98606.84
2023-01-11T07:56:04.360Z,98611.61
2023-01-11T07:58:30.843Z,98608.94
2023-01-11T08:00:59.477Z,98606.46
2023-01-11T08:03:26.022Z,98599.84
2023-01-11T08:05:52.868Z,98595.61
2023-01-11T08:08:19.663Z,98594.85
2023-01-11T08:10:46.260Z,98595.35
2023-01-11T08:13:13.929Z,98592.38
2023-01-11T08:15:40.690Z,98597.13
2023-01-11T08:18:07.098Z,98594.33
2023-01-11T08:20:34.377Z,98594.55
2023-01-11T08:23:05.811Z,98589.58
2023-01-11T08:25:33.268Z,98584.20
2023-01-11T08:28:01.375Z,98580.02
2023-01-11T08:30:28.716Z,98578.42
2023-01-11T08:32:55.332Z,98582.56
2023-01-11T08:35:21.836Z,98580.56
2023-01-11T08:37:48.338Z,98579.98
2023-01-11T08:40:14.869Z,98580.73
2023-01-11T08:42:41.344Z,98578.15
2023-01-11T08:45:08.323Z,98575.68
2023-01-11T08:47:34.723Z,98573.55
2023-01-11T08:50:01.234Z,98574.81
2023-01-11T08:52:27.649Z,98571.61
2023-01-11T08:54:54.129Z,98569.41
2023-01-11T08:57:20.881Z,98574.76
2023-01-11T08:59:47.405Z,98568.80
2023-01-11T09:02:13.784Z,98567.45
2023-01-11T09:04:41.735Z,98562.95
2023-01-11T09:07:08.128Z,98556.43
2023-01-11T09:09:34.660Z,98546.57
2023-01-11T09:12:01.119Z,98539.11
2023-01-11T09:14:28.734Z,98538.25
2023-01-11T09:16:55.983Z,98542.33
2023-01-11T09:19:22.993Z,98542.41
2023-01-11T09:21:49.763Z,98541.38
2023-01-11T09:24:16.198Z,98537.88
2023-01-11T09:26:42.748Z,98532.65
2023-01-11T09:29:10.208Z,98531.45
2023-01-11T09:31:36.916Z,98524.55
2023-01-11T09:34:03.509Z,98517.81
2023-01-11T09:36:30.021Z,98512.08
2023-01-11T09:38:56.587Z,98504.19
2023-01-11T09:41:41.122Z,98505.49
2023-01-11T09:44:17.341Z,98500.33
2023-01-11T09:46:48.471Z,98501.65
2023-01-11T09:49:24.694Z,98504.04
2023-01-11T09:51:51.550Z,98501.33
2023-01-11T09:54:23.636Z,98497.36
2023-01-11T09:56:59.483Z,98497.96
2023-01-11T09:59:37.285Z,98501.16
2023-01-11T10:02:13.211Z,98498.92
2023-01-11T10:05:06.099Z,98497.98
2023-01-11T10:07:41.614Z,98498.52
2023-01-11T10:18:30.323Z,98502.30
2023-01-11T10:19:39.766Z,98503.91
2023-01-11T10:22:31.943Z,98500.55
2023-01-11T10:25:04.444Z,98504.03
2023-01-11T10:27:46.488Z,98504.21
2023-01-11T10:30:22.952Z,98490.84
2023-01-11T10:32:51.313Z,98490.02
2023-01-11T10:35:20.288Z,98485.79
2023-01-11T10:37:50.279Z,98486.73
2023-01-11T10:40:27.496Z,98477.86
2023-01-11T10:43:09.422Z,98473.33
2023-01-11T10:45:44.699Z,98465.83
2023-01-11T10:48:26.258Z,98465.14
2023-01-11T10:50:58.743Z,98457.77
2023-01-11T10:53:54.287Z,98453.35
2023-01-11T10:57:03.146Z,98452.19
2023-01-11T10:59:49.906Z,98454.57
2023-01-11T11:02:23.399Z,98448.12
2023-01-11T11:05:13.397Z,98448.23
2023-01-11T11:07:50.770Z,98442.02
2023-01-11T11:10:53.197Z,98436.73
2023-01-11T11:13:28.936Z,98436.65
2023-01-11T11:16:10.853Z,98433.80
2023-01-11T11:18:37.607Z,98425.46
2023-01-11T11:21:10.714Z,98430.30
2023-01-11T11:23:38.916Z,98428.67
2023-01-11T11:26:07.324Z,98423.91
2023-01-11T11:28:33.902Z,98415.45
2023-01-11T11:31:03.629Z,98411.40
2023-01-11T11:33:37.600Z,98407.85
2023-01-11T11:36:09.114Z,98406.83
2023-01-11T11:38:38.910Z,98406.16
2023-01-11T11:41:09.577Z,98404.75
2023-01-11T11:43:44.363Z,98396.44
2023-01-11T11:46:18.664Z,98390.89
2023-01-11T11:49:17.903Z,98377.68
2023-01-11T11:51:46.990Z,98372.59
2023-01-11T11:54:22.974Z,98370.75
2023-01-11T11:56:50.634Z,98382.30
2023-01-11T11:59:20.661Z,98387.58
2023-01-11T12:01:55.220Z,98380.80
2023-01-11T12:04:46.299Z,98380.45
2023-01-11T12:07:22.784Z,98371.71
2023-01-11T12:09:57.145Z,98367.59
2023-01-11T12:12:26.916Z,98367.88
2023-01-11T12:15:26.765Z,98365.80
2023-01-11T12:17:53.877Z,98371.42
2023-01-11T12:20:23.164Z,98373.11
2023-01-11T12:22:50.823Z,98372.80
2023-01-11T12:25:17.375Z,98368.80
2023-01-11T12:27:55.996Z,98363.85
2023-01-11T12:30:31.200Z,98363.45
2023-01-11T12:33:16.340Z,98363.36
2023-01-11T12:36:09.326Z,98357.13
2023-01-11T12:38:38.982Z,98351.47
2023-01-11T12:41:21.009Z,98350.34
2023-01-11T12:44:04.258Z,98345.84
2023-01-11T12:46:39.559Z,98342.50
2023-01-11T12:49:43.773Z,98338.71
2023-01-11T12:52:27.856Z,98330.65
2023-01-11T12:55:23.743Z,98327.15
2023-01-11T12:58:14.726Z,98332.17
2023-01-11T13:00:44.247Z,98330.88
2023-01-11T13:03:22.910Z,98329.17
2023-01-11T13:06:09.947Z,98323.61
2023-01-11T13:08:53.882Z,98323.64
2023-01-11T13:11:32.622Z,98325.65
2023-01-11T13:14:02.833Z,98324.59
2023-01-11T13:16:39.506Z,98322.17
2023-01-11T13:19:14.035Z,98321.61
2023-01-11T13:21:47.628Z,98320.31
2023-01-11T13:24:17.587Z,98324.03
2023-01-11T13:26:50.746Z,98327.69
2023-01-11T13:29:35.122Z,98325.04
2023-01-11T13:32:06.811Z,98327.42
2023-01-11T13:34:39.159Z,98332.17
2023-01-11T13:37:19.088Z,98327.71
2023-01-11T13:39:51.829Z,98327.68
2023-01-11T13:42:25.291Z,98324.56
2023-01-11T13:44:59.920Z,98332.25
2023-01-11T13:47:42.462Z,98328.23
2023-01-11T13:50:21.232Z,98327.15
2023-01-11T13:53:12.604Z,98328.34
2023-01-11T13:55:48.115Z,98324.54
2023-01-11T13:58:30.944Z,98318.80
2023-01-11T14:01:11.361Z,98315.98
2023-01-11T14:03:52.680Z,98314.83
2023-01-11T14:06:53.669Z,98314.60
2023-01-11T14:10:02.190Z,98314.92
2023-01-11T14:12:47.651Z,98317.23
2023-01-11T14:15:40.802Z,98322.73
2023-01-11T14:18:14.210Z,98328.17
2023-01-11T14:20:52.676Z,98328.20
2023-01-11T14:23:21.892Z,98328.06
2023-01-11T14:26:11.113Z,98327.55
2023-01-11T14:28:51.730Z,98326.91
2023-01-11T14:31:33.683Z,98325.30
2023-01-11T14:34:22.258Z,98324.88
2023-01-11T14:37:04.067Z,98325.52
2023-01-11T14:39:42.737Z,98327.02
2023-01-11T14:42:35.654Z,98319.91
2023-01-11T14:45:18.866Z,98312.95
2023-01-11T14:48:10.606Z,98311.67
2023-01-11T14:50:55.985Z,98308.18
2023-01-11T14:53:42.595Z,98303.43
2023-01-11T14:56:57.609Z,98302.64
2023-01-11T14:59:53.593Z,98310.11
2023-01-11T15:02:29.015Z,98308.80
2023-01-11T15:04:55.483Z,98308.13
2023-01-11T15:07:31.116Z,98309.98
2023-01-11T15:09:59.437Z,98307.88
2023-01-11T15:12:32.709Z,98308.66
2023-01-11T15:15:19.046Z,98307.16
2023-01-11T15:17:52.977Z,98305.33
2023-01-11T15:20:22.016Z,98301.35
2023-01-11T15:23:04.134Z,98302.02
2023-01-11T15:28:39.989Z,98303.84
2023-01-11T15:44:51.514Z,98303.64
2023-01-11T15:47:40.542Z,98301.75
2023-01-11T15:50:28.466Z,98302.41
2023-01-11T15:53:42.637Z,98303.05
2023-01-11T15:56:53.866Z,98309.88
2023-01-11T16:00:00.007Z,98306.13
2023-01-11T16:02:48.269Z,98299.92
2023-01-11T16:05:26.239Z,98297.95
2023-01-11T16:07:58.619Z,98296.80
2023-01-11T16:10:41.078Z,98293.56
2023-01-11T16:13:29.948Z,98292.00
2023-01-11T16:16:15.327Z,98291.69
2023-01-11T16:18:52.338Z,98284.69
2023-01-11T16:21:29.792Z,98281.94
2023-01-11T16:23:56.763Z,98286.52
2023-01-11T16:26:24.037Z,98296.07
2023-01-11T16:28:57.759Z,98297.81
2023-01-11T16:31:25.365Z,98297.19
2023-01-11T16:33:52.494Z,98293.32
2023-01-11T16:36:21.441Z,98289.52
2023-01-11T16:39:05.757Z,98292.55
2023-01-11T16:41:46.891Z,98299.67
2023-01-11T16:44:32.786Z,98295.48
2023-01-11T16:47:18.481Z,98286.58
2023-01-11T16:49:50.342Z,98287.56
2023-01-11T16:52:28.936Z,98286.26
2023-01-11T16:54:59.867Z,98287.19
2023-01-11T16:57:32.626Z,98285.05
2023-01-11T17:00:07.289Z,98287.23
2023-01-11T17:02:35.485Z,98282.75
2023-01-11T17:05:01.955Z,98283.70
2023-01-11T17:07:30.325Z,98282.39
2023-01-11T17:10:29.825Z,98280.76
2023-01-11T17:12:59.354Z,98269.29
2023-01-11T17:15:48.193Z,98264.93
2023-01-11T17:18:14.976Z,98267.46
2023-01-11T17:20:41.407Z,98266.80
2023-01-11T17:23:15.546Z,98264.64
2023-01-11T17:25:45.148Z,98264.27
2023-01-11T17:28:19.887Z,98266.44
2023-01-11T17:30:49.367Z,98270.11
2023-01-11T17:33:29.082Z,98277.61
2023-01-11T17:35:56.300Z,98278.88
2023-01-11T17:38:25.483Z,98282.00
2023-01-11T17:40:54.318Z,98281.21
2023-01-11T17:43:24.038Z,98278.92
2023-01-11T17:45:52.092Z,98272.69
2023-01-11T17:48:18.684Z,98271.05
2023-01-11T17:50:55.593Z,98267.70
2023-01-11T17:53:24.973Z,98265.67
2023-01-11T17:55:57.217Z,98265.73
2023-01-11T17:58:38.229Z,98266.92
2023-01-11T18:01:04.854Z,98263.90
2023-01-11T18:03:41.661Z,98265.08
2023-01-11T18:06:52.263Z,98261.48
2023-01-11T18:10:04.000Z,98261.04
2023-01-11T18:12:33.978Z,98264.90
2023-01-11T18:15:04.065Z,98268.09
2023-01-11T18:17:38.131Z,98271.26
2023-01-11T18:20:24.846Z,98271.15
2023-01-11T18:23:05.048Z,98275.48
2023-01-11T18:25:34.433Z,98274.52
2023-01-11T18:28:21.860Z,98276.17
2023-01-11T18:30:50.528Z,98274.59
2023-01-11T18:33:20.528Z,98274.48
2023-01-11T18:35:50.486Z,98280.96
2023-01-11T18:38:20.010Z,98286.93
2023-01-11T18:40:49.158Z,98288.16
2023-01-11T18:43:20.563Z,98287.83
2023-01-11T18:45:47.400Z,98290.43
2023-01-11T18:48:15.097Z,98286.02
2023-01-11T18:50:44.272Z,98283.67
2023-01-11T18:53:12.775Z,98281.63
2023-01-11T18:55:40.185Z,98274.98
2023-01-11T18:58:07.023Z,98279.46
2023-01-11T19:00:33.628Z,98280.89
2023-01-11T19:03:00.695Z,98279.34
2023-01-11T19:05:27.473Z,98280.23
2023-01-11T19:07:54.166Z,98278.39
2023-01-11T19:10:23.405Z,98277.20
2023-01-11T19:12:50.525Z,98281.12
2023-01-11T19:15:17.373Z,98286.91
2023-01-11T19:17:44.208Z,98290.00
2023-01-11T19:20:11.484Z,98292.08
2023-01-11T19:22:38.754Z,98286.82
2023-01-11T19:25:05.872Z,98286.67
2023-01-11T19:27:32.758Z,98293.31
2023-01-11T19:29:59.391Z,98295.38
2023-01-11T19:32:25.860Z,98300.44
2023-01-11T19:34:53.470Z,98300.52
2023-01-11T19:37:20.041Z,98306.91
2023-01-11T19:39:46.721Z,98310.11
2023-01-11T19:42:13.336Z,98309.95
2023-01-11T19:44:39.979Z,98306.23
2023-01-11T19:47:12.112Z,98312.38
2023-01-11T19:49:40.471Z,98318.39
2023-01-11T19:52:07.557Z,98316.08
2023-01-11T19:54:34.247Z,98323.27
2023-01-11T19:57:00.999Z,98326.69
2023-01-11T19:59:27.827Z,98333.33
2023-01-11T20:01:54.328Z,98337.95
2023-01-11T20:04:21.238Z,98340.54
2023-01-11T20:06:47.661Z,98337.16
2023-01-11T20:09:14.088Z,98338.40
2023-01-11T20:11:40.640Z,98337.95
2023-01-11T20:14:07.590Z,98342.52
2023-01-11T20:16:34.045Z,98341.84
2023-01-11T20:19:00.694Z,98338.79
2023-01-11T20:21:28.946Z,98340.84
2023-01-11T20:23:56.007Z,98338.65
2023-01-11T20:26:22.651Z,98337.30
2023-01-11T20:28:51.916Z,98339.72
2023-01-11T20:31:18.710Z,98342.30
2023-01-11T20:33:46.272Z,98345.73
2023-01-11T20:36:18.042Z,98340.48
2023-01-11T20:38:45.813Z,98336.61
2023-01-11T20:41:15.112Z,98333.73
2023-01-11T20:43:41.865Z,98333.77
2023-01-11T20:46:08.478Z,98330.55
2023-01-11T20:48:35.173Z,98330.56
2023-01-11T20:51:05.167Z,98333.44
2023-01-11T20:53:31.952Z,98337.85
2023-01-11T20:55:58.404Z,98334.46
2023-01-11T20:58:25.191Z,98329.52
2023-01-11T21:00:51.943Z,98327.45
2023-01-11T21:03:18.479Z,98329.82
2023-01-11T21:05:45.018Z,98333.57
2023-01-11T21:08:11.774Z,98327.92
2023-01-11T21:10:38.325Z,98328.92
2023-01-11T21:13:05.166Z,98327.73
2023-01-11T21:15:31.707Z,98326.02
2023-01-11T21:17:58.349Z,98325.86
2023-01-11T21:20:24.888Z,98319.36
2023-01-11T21:22:51.536Z,98312.37
2023-01-11T21:25:18.072Z,98317.47
2023-01-11T21:27:44.574Z,98319.85
2023-01-11T21:30:11.888Z,98325.14
2023-01-11T21:32:38.369Z,98324.14
2023-01-11T21:35:05.466Z,98324.84
2023-01-11T21:37:32.516Z,98322.13
2023-01-11T21:39:59.227Z,98319.94
2023-01-11T21:42:25.827Z,98322.49
2023-01-11T21:44:52.349Z,98320.98
2023-01-11T21:47:18.897Z,98326.59
2023-01-11T21:49:45.562Z,98331.70
2023-01-11T21:52:12.075Z,98333.95
2023-01-11T21:54:38.523Z,98339.94
2023-01-11T21:57:05.061Z,98340.15
2023-01-11T21:59:31.565Z,98337.94
2023-01-11T22:01:57.968Z,98336.58
2023-01-11T22:04:24.531Z,98339.63
2023-01-11T22:06:51.167Z,98327.88
2023-01-11T22:09:18.184Z,98325.79
2023-01-11T22:11:44.610Z,98320.11
2023-01-11T22:14:11.280Z,98317.70
2023-01-11T22:16:38.432Z,98317.54
2023-01-11T22:19:06.597Z,98318.74
2023-01-11T22:21:33.184Z,98317.92
2023-01-11T22:24:00.157Z,98324.05
2023-01-11T22:26:28.493Z,98319.95
2023-01-11T22:28:58.210Z,98319.77
2023-01-11T22:31:26.617Z,98317.05
2023-01-11T22:33:54.135Z,98322.80
2023-01-11T22:36:21.981Z,98329.26
2023-01-11T22:38:48.573Z,98338.08
2023-01-11T22:41:15.881Z,98338.39
2023-01-11T22:43:43.097Z,98342.09
2023-01-11T22:46:16.004Z,98336.77
2023-01-11T22:48:44.495Z,98331.73
2023-01-11T22:51:11.909Z,98327.08
2023-01-11T22:53:40.015Z,98322.86
2023-01-11T22:56:08.417Z,98314.06
2023-01-11T22:58:35.733Z,98317.92
2023-01-11T23:01:13.089Z,98318.88
2023-01-11T23:03:40.840Z,98320.50
2023-01-11T23:06:08.681Z,98313.44
2023-01-11T23:08:40.133Z,98315.23
2023-01-11T23:11:11.716Z,98313.50
2023-01-11T23:13:38.245Z,98317.02
2023-01-11T23:16:05.548Z,98315.94
2023-01-11T23:18:32.055Z,98312.48
2023-01-11T23:21:03.396Z,98311.43
2023-01-11T23:23:29.884Z,98309.15
2023-01-11T23:25:56.712Z,98313.02
2023-01-11T23:28:23.549Z,98312.80
2023-01-11T23:30:50.202Z,98319.23
2023-01-11T23:33:17.255Z,98325.63
2023-01-11T23:35:43.697Z,98328.47
2023-01-11T23:38:10.155Z,98328.24
2023-01-11T23:40:36.777Z,98330.90
2023-01-11T23:43:03.318Z,98330.13
2023-01-11T23:45:29.976Z,98330.40
2023-01-11T23:47:56.461Z,98328.66
2023-01-11T23:50:23.048Z,98328.81
2023-01-11T23:52:49.701Z,98328.80
2023-01-11T23:55:16.302Z,98328.45
2023-01-11T23:57:42.743Z,98334.56
